Cathy Theresa — OZEV2 — position and weather

sailwx.info

Track history (hours):
 
Tides and Currents Weather Stations Pressure Air Temp Water Temp Dewpoint Dewpoint Depression Visibility Wind Speed Wind Dir Waves Ship Positions

Cathy Theresa

Last reported at 2018-Jun-01 20:52 UTC. Time now 2018-Jun-18 07:35 UTC.
Position N 08°34' W 016°05'.
Warning: this ship's position is 16 days out of date.

Length 102 m; draft 8 m.

Type: Tanker. MMSI: 219374000.

Date/timePositionNaut miles runAvg speedWind from/ knotsBaromVisibWave heightAir tempDewpointWater temp
2018-Jun-01 20:52N 08°34' W 016°05'5312.0
2018-Jun-01 16:26N 09°08' W 016°47'512.2
2018-Jun-01 16:00N 09°11' W 016°51'612.2
2018-Jun-01 15:30N 09°15' W 016°55'612.2
2018-Jun-01 15:00N 09°21' W 016°57'1612.3
2018-Jun-01 13:41N 09°37' W 017°02'  
2018-May-25 14:22N 28°10' W 015°24'0 0.0
2018-May-25 13:55N 28°10' W 015°24'0 0.0
2018-May-25 13:25N 28°10' W 015°24'0 0.0
2018-May-25 12:58N 28°10' W 015°24'0 0.0
2018-May-25 12:25N 28°10' W 015°24'0 0.0
2018-May-25 11:58N 28°10' W 015°24'0 0.0
2018-May-25 11:25N 28°10' W 015°24'0 0.0
2018-May-25 10:58N 28°10' W 015°24'0 0.0
2018-May-25 10:28N 28°10' W 015°24'0 0.0
2018-May-25 09:58N 28°10' W 015°24'0 0.0
2018-May-25 09:28N 28°10' W 015°24'0 0.0
2018-May-25 08:58N 28°10' W 015°24'1 1.8
2018-May-25 08:30N 28°09' W 015°24'3 5.8
2018-May-25 08:00N 28°10' W 015°21'0 0.9
2018-May-25 07:30N 28°10' W 015°21'510.8
2018-May-25 07:01N 28°15' W 015°20'510.9
2018-May-25 06:31N 28°21' W 015°18'611.2
2018-May-25 06:00N 28°26' W 015°17'611.6
2018-May-25 05:30N 28°32' W 015°15'611.7
2018-May-25 05:00N 28°38' W 015°14'611.5
2018-May-25 04:30N 28°43' W 015°12'611.5
2018-May-25 04:00N 28°49' W 015°11'  
Track history (hours):
 
Tides and Currents Weather Stations Pressure Air Temp Water Temp Dewpoint Dewpoint Depression Visibility Wind Speed Wind Dir Waves Ship Positions

Cathy Theresa

Last reported at 2018-Jun-01 20:52 UTC. Time now 2018-Jun-18 07:35 UTC.
Position N 08°34' W 016°05'.
Warning: this ship's position is 16 days out of date.

Length 102 m; draft 8 m.

Type: Tanker. MMSI: 219374000.

Date/timePositionNaut miles runAvg speedWind from/ knotsBaromVisibWave heightAir tempDewpointWater temp
2018-Jun-01 20:52N 08°34' W 016°05'5312.0
2018-Jun-01 16:26N 09°08' W 016°47'512.2
2018-Jun-01 16:00N 09°11' W 016°51'612.2
2018-Jun-01 15:30N 09°15' W 016°55'612.2
2018-Jun-01 15:00N 09°21' W 016°57'1612.3
2018-Jun-01 13:41N 09°37' W 017°02'  
2018-May-25 14:22N 28°10' W 015°24'0 0.0
2018-May-25 13:55N 28°10' W 015°24'0 0.0
2018-May-25 13:25N 28°10' W 015°24'0 0.0
2018-May-25 12:58N 28°10' W 015°24'0 0.0
2018-May-25 12:25N 28°10' W 015°24'0 0.0
2018-May-25 11:58N 28°10' W 015°24'0 0.0
2018-May-25 11:25N 28°10' W 015°24'0 0.0
2018-May-25 10:58N 28°10' W 015°24'0 0.0
2018-May-25 10:28N 28°10' W 015°24'0 0.0
2018-May-25 09:58N 28°10' W 015°24'0 0.0
2018-May-25 09:28N 28°10' W 015°24'0 0.0
2018-May-25 08:58N 28°10' W 015°24'1 1.8
2018-May-25 08:30N 28°09' W 015°24'3 5.8
2018-May-25 08:00N 28°10' W 015°21'0 0.9
2018-May-25 07:30N 28°10' W 015°21'510.8
2018-May-25 07:01N 28°15' W 015°20'510.9
2018-May-25 06:31N 28°21' W 015°18'611.2
2018-May-25 06:00N 28°26' W 015°17'611.6
2018-May-25 05:30N 28°32' W 015°15'611.7
2018-May-25 05:00N 28°38' W 015°14'611.5
2018-May-25 04:30N 28°43' W 015°12'611.5
2018-May-25 04:00N 28°49' W 015°11'  

Dump ship's entire track history